sensor_id;sensor_type;location;lat;lon;timestamp;P1;durP1;ratioP1;P2;durP2;ratioP2
15385;SDS011;7791;47.246;9.648;2022-10-22T00:01:45;20.23;;;9.07;;
15385;SDS011;7791;47.246;9.648;2022-10-22T00:04:11;24.13;;;9.43;;
15385;SDS011;7791;47.246;9.648;2022-10-22T00:06:37;19.13;;;10.00;;
15385;SDS011;7791;47.246;9.648;2022-10-22T00:09:03;22.27;;;10.13;;
15385;SDS011;7791;47.246;9.648;2022-10-22T00:11:28;19.93;;;8.67;;
15385;SDS011;7791;47.246;9.648;2022-10-22T00:13:54;22.77;;;9.50;;
15385;SDS011;7791;47.246;9.648;2022-10-22T00:16:22;22.00;;;8.77;;
15385;SDS011;7791;47.246;9.648;2022-10-22T00:18:48;22.10;;;10.60;;
15385;SDS011;7791;47.246;9.648;2022-10-22T00:21:14;24.77;;;10.33;;
15385;SDS011;7791;47.246;9.648;2022-10-22T00:23:39;21.20;;;10.03;;
15385;SDS011;7791;47.246;9.648;2022-10-22T00:26:11;21.87;;;9.93;;
15385;SDS011;7791;47.246;9.648;2022-10-22T00:28:37;19.07;;;9.90;;
15385;SDS011;7791;47.246;9.648;2022-10-22T00:31:03;20.83;;;9.60;;
15385;SDS011;7791;47.246;9.648;2022-10-22T00:33:30;21.67;;;10.67;;
15385;SDS011;7791;47.246;9.648;2022-10-22T00:35:56;19.70;;;9.90;;
15385;SDS011;7791;47.246;9.648;2022-10-22T00:38:22;25.37;;;12.40;;
15385;SDS011;7791;47.246;9.648;2022-10-22T00:43:57;22.40;;;11.20;;
15385;SDS011;7791;47.246;9.648;2022-10-22T00:46:24;26.07;;;12.73;;
15385;SDS011;7791;47.246;9.648;2022-10-22T00:48:51;23.30;;;10.83;;
15385;SDS011;7791;47.246;9.648;2022-10-22T00:51:19;24.67;;;11.10;;
15385;SDS011;7791;47.246;9.648;2022-10-22T00:53:49;25.53;;;10.50;;
15385;SDS011;7791;47.246;9.648;2022-10-22T01:05:27;13.63;;;8.60;;
15385;SDS011;7791;47.246;9.648;2022-10-22T01:08:05;13.77;;;7.77;;
15385;SDS011;7791;47.246;9.648;2022-10-22T01:10:45;10.63;;;6.20;;
15385;SDS011;7791;47.246;9.648;2022-10-22T01:13:21;7.63;;;4.57;;
15385;SDS011;7791;47.246;9.648;2022-10-22T01:15:58;5.37;;;3.00;;
15385;SDS011;7791;47.246;9.648;2022-10-22T01:18:31;5.53;;;2.53;;
15385;SDS011;7791;47.246;9.648;2022-10-22T01:21:05;4.47;;;1.83;;
15385;SDS011;7791;47.246;9.648;2022-10-22T01:23:51;4.83;;;1.67;;
15385;SDS011;7791;47.246;9.648;2022-10-22T01:26:42;2.37;;;1.07;;
15385;SDS011;7791;47.246;9.648;2022-10-22T01:29:23;2.57;;;0.90;;
15385;SDS011;7791;47.246;9.648;2022-10-22T01:31:54;1.17;;;0.80;;
15385;SDS011;7791;47.246;9.648;2022-10-22T01:34:23;1.63;;;0.90;;
15385;SDS011;7791;47.246;9.648;2022-10-22T01:36:49;4.33;;;1.47;;
15385;SDS011;7791;47.246;9.648;2022-10-22T01:39:16;3.77;;;1.23;;
15385;SDS011;7791;47.246;9.648;2022-10-22T01:41:44;5.30;;;1.90;;
15385;SDS011;7791;47.246;9.648;2022-10-22T01:44:22;5.30;;;1.67;;
15385;SDS011;7791;47.246;9.648;2022-10-22T01:46:49;5.17;;;1.77;;
15385;SDS011;7791;47.246;9.648;2022-10-22T01:49:21;3.73;;;1.20;;
15385;SDS011;7791;47.246;9.648;2022-10-22T01:51:58;7.27;;;1.53;;
15385;SDS011;7791;47.246;9.648;2022-10-22T01:54:33;5.93;;;0.77;;
15385;SDS011;7791;47.246;9.648;2022-10-22T01:57:21;5.00;;;1.23;;
15385;SDS011;7791;47.246;9.648;2022-10-22T01:59:58;3.67;;;0.80;;
15385;SDS011;7791;47.246;9.648;2022-10-22T02:02:30;2.93;;;0.93;;
15385;SDS011;7791;47.246;9.648;2022-10-22T02:05:02;5.30;;;1.10;;
15385;SDS011;7791;47.246;9.648;2022-10-22T02:07:36;3.40;;;1.30;;
15385;SDS011;7791;47.246;9.648;2022-10-22T02:10:06;3.13;;;1.20;;
15385;SDS011;7791;47.246;9.648;2022-10-22T02:12:43;8.87;;;1.30;;
15385;SDS011;7791;47.246;9.648;2022-10-22T02:15:14;5.33;;;1.30;;
15385;SDS011;7791;47.246;9.648;2022-10-22T02:17:42;6.93;;;1.13;;
15385;SDS011;7791;47.246;9.648;2022-10-22T02:20:11;3.43;;;1.33;;
15385;SDS011;7791;47.246;9.648;2022-10-22T02:22:40;3.23;;;1.20;;
15385;SDS011;7791;47.246;9.648;2022-10-22T02:25:07;6.73;;;1.10;;
15385;SDS011;7791;47.246;9.648;2022-10-22T02:27:53;1.33;;;0.60;;
15385;SDS011;7791;47.246;9.648;2022-10-22T02:30:29;2.33;;;1.10;;
15385;SDS011;7791;47.246;9.648;2022-10-22T02:32:58;2.33;;;0.90;;
15385;SDS011;7791;47.246;9.648;2022-10-22T02:35:26;2.27;;;0.90;;
15385;SDS011;7791;47.246;9.648;2022-10-22T02:37:54;2.30;;;0.90;;
15385;SDS011;7791;47.246;9.648;2022-10-22T02:40:22;2.87;;;0.70;;
15385;SDS011;7791;47.246;9.648;2022-10-22T02:43:04;1.00;;;0.70;;
15385;SDS011;7791;47.246;9.648;2022-10-22T02:45:31;3.00;;;1.03;;
15385;SDS011;7791;47.246;9.648;2022-10-22T02:47:58;2.83;;;0.90;;
15385;SDS011;7791;47.246;9.648;2022-10-22T02:50:23;1.90;;;0.77;;
15385;SDS011;7791;47.246;9.648;2022-10-22T02:52:49;1.63;;;1.13;;
15385;SDS011;7791;47.246;9.648;2022-10-22T02:55:15;0.93;;;0.70;;
15385;SDS011;7791;47.246;9.648;2022-10-22T02:57:41;1.10;;;0.90;;
15385;SDS011;7791;47.246;9.648;2022-10-22T03:00:07;0.70;;;0.70;;
15385;SDS011;7791;47.246;9.648;2022-10-22T03:02:35;3.13;;;0.83;;
15385;SDS011;7791;47.246;9.648;2022-10-22T03:05:01;1.47;;;0.80;;
15385;SDS011;7791;47.246;9.648;2022-10-22T03:07:27;2.27;;;0.77;;
15385;SDS011;7791;47.246;9.648;2022-10-22T03:09:52;1.50;;;1.00;;
15385;SDS011;7791;47.246;9.648;2022-10-22T03:15:14;1.50;;;1.20;;
15385;SDS011;7791;47.246;9.648;2022-10-22T03:17:41;1.73;;;1.17;;
15385;SDS011;7791;47.246;9.648;2022-10-22T03:20:07;1.87;;;1.27;;
15385;SDS011;7791;47.246;9.648;2022-10-22T03:22:33;2.00;;;1.50;;
15385;SDS011;7791;47.246;9.648;2022-10-22T03:25:03;3.23;;;1.30;;
15385;SDS011;7791;47.246;9.648;2022-10-22T03:30:35;2.97;;;1.40;;
15385;SDS011;7791;47.246;9.648;2022-10-22T03:33:02;1.60;;;1.20;;
15385;SDS011;7791;47.246;9.648;2022-10-22T03:35:27;2.40;;;1.50;;
15385;SDS011;7791;47.246;9.648;2022-10-22T03:37:54;3.57;;;1.90;;
15385;SDS011;7791;47.246;9.648;2022-10-22T03:40:20;4.13;;;2.63;;
15385;SDS011;7791;47.246;9.648;2022-10-22T03:42:48;2.93;;;2.40;;
15385;SDS011;7791;47.246;9.648;2022-10-22T03:45:13;5.00;;;2.60;;
15385;SDS011;7791;47.246;9.648;2022-10-22T03:47:39;6.27;;;2.87;;
15385;SDS011;7791;47.246;9.648;2022-10-22T03:50:07;4.23;;;2.13;;
15385;SDS011;7791;47.246;9.648;2022-10-22T03:52:34;3.23;;;1.87;;
15385;SDS011;7791;47.246;9.648;2022-10-22T03:55:01;2.67;;;1.87;;
15385;SDS011;7791;47.246;9.648;2022-10-22T03:57:27;4.43;;;2.20;;
15385;SDS011;7791;47.246;9.648;2022-10-22T03:59:52;2.67;;;1.70;;
15385;SDS011;7791;47.246;9.648;2022-10-22T04:02:18;3.53;;;1.40;;
15385;SDS011;7791;47.246;9.648;2022-10-22T04:04:44;4.43;;;1.60;;
15385;SDS011;7791;47.246;9.648;2022-10-22T04:07:11;3.23;;;1.30;;
15385;SDS011;7791;47.246;9.648;2022-10-22T04:09:37;4.07;;;1.43;;
15385;SDS011;7791;47.246;9.648;2022-10-22T04:12:18;3.10;;;1.37;;
15385;SDS011;7791;47.246;9.648;2022-10-22T04:14:43;1.77;;;1.20;;
15385;SDS011;7791;47.246;9.648;2022-10-22T04:17:09;2.50;;;1.50;;
15385;SDS011;7791;47.246;9.648;2022-10-22T04:19:35;1.70;;;1.13;;
15385;SDS011;7791;47.246;9.648;2022-10-22T04:22:01;6.43;;;1.47;;
15385;SDS011;7791;47.246;9.648;2022-10-22T04:24:28;2.10;;;1.50;;
15385;SDS011;7791;47.246;9.648;2022-10-22T04:26:54;3.33;;;1.90;;
15385;SDS011;7791;47.246;9.648;2022-10-22T04:32:23;7.13;;;1.30;;
15385;SDS011;7791;47.246;9.648;2022-10-22T04:34:48;1.80;;;1.20;;
15385;SDS011;7791;47.246;9.648;2022-10-22T04:37:14;2.60;;;1.10;;
15385;SDS011;7791;47.246;9.648;2022-10-22T04:39:41;1.83;;;0.90;;
15385;SDS011;7791;47.246;9.648;2022-10-22T04:42:07;2.80;;;1.03;;
15385;SDS011;7791;47.246;9.648;2022-10-22T04:44:32;1.50;;;0.90;;
15385;SDS011;7791;47.246;9.648;2022-10-22T04:46:58;2.23;;;1.20;;
15385;SDS011;7791;47.246;9.648;2022-10-22T04:49:24;8.40;;;1.17;;
15385;SDS011;7791;47.246;9.648;2022-10-22T04:51:50;2.90;;;1.07;;
15385;SDS011;7791;47.246;9.648;2022-10-22T04:54:16;1.30;;;1.10;;
15385;SDS011;7791;47.246;9.648;2022-10-22T04:56:43;2.43;;;1.60;;
15385;SDS011;7791;47.246;9.648;2022-10-22T04:59:11;3.67;;;1.60;;
15385;SDS011;7791;47.246;9.648;2022-10-22T05:01:38;1.93;;;1.43;;
15385;SDS011;7791;47.246;9.648;2022-10-22T05:04:05;3.10;;;1.20;;
15385;SDS011;7791;47.246;9.648;2022-10-22T05:06:32;1.90;;;1.30;;
15385;SDS011;7791;47.246;9.648;2022-10-22T05:09:00;2.00;;;1.00;;
15385;SDS011;7791;47.246;9.648;2022-10-22T05:11:28;3.80;;;1.30;;
15385;SDS011;7791;47.246;9.648;2022-10-22T05:13:57;2.50;;;1.10;;
15385;SDS011;7791;47.246;9.648;2022-10-22T05:16:24;3.87;;;1.80;;
15385;SDS011;7791;47.246;9.648;2022-10-22T05:18:50;2.10;;;1.40;;
15385;SDS011;7791;47.246;9.648;2022-10-22T05:21:16;2.83;;;1.40;;
15385;SDS011;7791;47.246;9.648;2022-10-22T05:23:43;3.07;;;1.30;;
15385;SDS011;7791;47.246;9.648;2022-10-22T05:26:11;2.43;;;0.90;;
15385;SDS011;7791;47.246;9.648;2022-10-22T05:28:38;2.00;;;0.60;;
15385;SDS011;7791;47.246;9.648;2022-10-22T05:31:06;1.00;;;0.40;;
15385;SDS011;7791;47.246;9.648;2022-10-22T05:33:34;1.70;;;0.60;;
15385;SDS011;7791;47.246;9.648;2022-10-22T05:36:00;2.20;;;0.53;;
15385;SDS011;7791;47.246;9.648;2022-10-22T05:38:27;2.47;;;0.57;;
15385;SDS011;7791;47.246;9.648;2022-10-22T05:40:59;2.90;;;0.70;;
15385;SDS011;7791;47.246;9.648;2022-10-22T05:43:25;4.37;;;0.70;;
15385;SDS011;7791;47.246;9.648;2022-10-22T05:45:50;1.23;;;0.40;;
15385;SDS011;7791;47.246;9.648;2022-10-22T05:48:17;2.00;;;0.50;;
15385;SDS011;7791;47.246;9.648;2022-10-22T05:50:43;1.37;;;0.50;;
15385;SDS011;7791;47.246;9.648;2022-10-22T05:53:09;1.03;;;0.43;;
15385;SDS011;7791;47.246;9.648;2022-10-22T05:55:35;2.53;;;1.60;;
15385;SDS011;7791;47.246;9.648;2022-10-22T05:58:01;2.00;;;1.80;;
15385;SDS011;7791;47.246;9.648;2022-10-22T06:00:27;1.63;;;1.03;;
15385;SDS011;7791;47.246;9.648;2022-10-22T06:02:53;1.90;;;0.80;;
15385;SDS011;7791;47.246;9.648;2022-10-22T06:05:20;2.50;;;1.03;;
15385;SDS011;7791;47.246;9.648;2022-10-22T06:07:46;4.87;;;1.90;;
15385;SDS011;7791;47.246;9.648;2022-10-22T06:10:13;4.07;;;2.00;;
15385;SDS011;7791;47.246;9.648;2022-10-22T06:12:41;3.00;;;1.53;;
15385;SDS011;7791;47.246;9.648;2022-10-22T06:15:08;1.53;;;0.63;;
15385;SDS011;7791;47.246;9.648;2022-10-22T06:17:34;1.30;;;0.70;;
15385;SDS011;7791;47.246;9.648;2022-10-22T06:19:59;2.03;;;1.33;;
15385;SDS011;7791;47.246;9.648;2022-10-22T06:22:26;4.43;;;2.03;;
15385;SDS011;7791;47.246;9.648;2022-10-22T06:24:52;10.77;;;4.77;;
15385;SDS011;7791;47.246;9.648;2022-10-22T06:27:18;17.70;;;10.90;;
15385;SDS011;7791;47.246;9.648;2022-10-22T06:35:36;2.17;;;1.50;;
15385;SDS011;7791;47.246;9.648;2022-10-22T06:38:03;4.60;;;2.80;;
15385;SDS011;7791;47.246;9.648;2022-10-22T06:40:29;4.03;;;2.23;;
15385;SDS011;7791;47.246;9.648;2022-10-22T06:42:54;2.20;;;1.57;;
15385;SDS011;7791;47.246;9.648;2022-10-22T06:45:22;9.83;;;8.83;;
15385;SDS011;7791;47.246;9.648;2022-10-22T06:47:48;5.80;;;3.17;;
15385;SDS011;7791;47.246;9.648;2022-10-22T06:50:14;3.93;;;2.23;;
15385;SDS011;7791;47.246;9.648;2022-10-22T06:52:40;2.17;;;1.10;;
15385;SDS011;7791;47.246;9.648;2022-10-22T06:55:07;3.00;;;1.47;;
15385;SDS011;7791;47.246;9.648;2022-10-22T06:57:33;1.27;;;0.80;;
15385;SDS011;7791;47.246;9.648;2022-10-22T06:59:59;3.03;;;0.80;;
15385;SDS011;7791;47.246;9.648;2022-10-22T07:02:25;1.17;;;1.07;;
15385;SDS011;7791;47.246;9.648;2022-10-22T07:04:50;1.43;;;1.10;;
15385;SDS011;7791;47.246;9.648;2022-10-22T07:07:16;1.77;;;0.93;;
15385;SDS011;7791;47.246;9.648;2022-10-22T07:09:42;2.60;;;2.03;;
15385;SDS011;7791;47.246;9.648;2022-10-22T07:12:09;3.70;;;1.00;;
15385;SDS011;7791;47.246;9.648;2022-10-22T07:14:38;1.93;;;1.30;;
15385;SDS011;7791;47.246;9.648;2022-10-22T07:17:03;2.43;;;0.80;;
15385;SDS011;7791;47.246;9.648;2022-10-22T07:19:29;2.20;;;1.30;;
15385;SDS011;7791;47.246;9.648;2022-10-22T07:21:55;5.80;;;4.20;;
15385;SDS011;7791;47.246;9.648;2022-10-22T07:24:21;1.27;;;0.90;;
15385;SDS011;7791;47.246;9.648;2022-10-22T07:26:47;14.83;;;8.93;;
15385;SDS011;7791;47.246;9.648;2022-10-22T07:29:14;4.53;;;2.13;;
15385;SDS011;7791;47.246;9.648;2022-10-22T07:31:43;4.03;;;0.97;;
15385;SDS011;7791;47.246;9.648;2022-10-22T07:34:09;3.20;;;0.70;;
15385;SDS011;7791;47.246;9.648;2022-10-22T07:36:35;4.37;;;0.80;;
15385;SDS011;7791;47.246;9.648;2022-10-22T07:39:01;1.30;;;0.90;;
15385;SDS011;7791;47.246;9.648;2022-10-22T07:41:27;2.83;;;0.83;;
15385;SDS011;7791;47.246;9.648;2022-10-22T07:43:53;2.87;;;1.63;;
15385;SDS011;7791;47.246;9.648;2022-10-22T07:46:26;2.83;;;1.67;;
15385;SDS011;7791;47.246;9.648;2022-10-22T07:48:51;8.10;;;7.33;;
15385;SDS011;7791;47.246;9.648;2022-10-22T07:51:17;3.67;;;3.33;;
15385;SDS011;7791;47.246;9.648;2022-10-22T07:53:43;1.23;;;1.13;;
15385;SDS011;7791;47.246;9.648;2022-10-22T07:56:09;1.57;;;1.47;;
15385;SDS011;7791;47.246;9.648;2022-10-22T07:58:34;0.83;;;0.70;;
15385;SDS011;7791;47.246;9.648;2022-10-22T08:01:06;2.30;;;1.60;;
15385;SDS011;7791;47.246;9.648;2022-10-22T08:03:33;2.10;;;1.00;;
15385;SDS011;7791;47.246;9.648;2022-10-22T08:05:59;0.83;;;0.50;;
15385;SDS011;7791;47.246;9.648;2022-10-22T08:08:25;1.00;;;0.57;;
15385;SDS011;7791;47.246;9.648;2022-10-22T08:10:51;2.90;;;0.70;;
15385;SDS011;7791;47.246;9.648;2022-10-22T08:13:17;3.27;;;0.80;;
15385;SDS011;7791;47.246;9.648;2022-10-22T08:15:44;1.10;;;0.60;;
15385;SDS011;7791;47.246;9.648;2022-10-22T08:18:10;6.13;;;1.00;;
15385;SDS011;7791;47.246;9.648;2022-10-22T08:20:37;3.63;;;1.00;;
15385;SDS011;7791;47.246;9.648;2022-10-22T08:23:03;7.77;;;0.90;;
15385;SDS011;7791;47.246;9.648;2022-10-22T08:25:29;1.93;;;0.60;;
15385;SDS011;7791;47.246;9.648;2022-10-22T08:27:55;2.33;;;0.70;;
15385;SDS011;7791;47.246;9.648;2022-10-22T08:30:21;1.97;;;0.70;;
15385;SDS011;7791;47.246;9.648;2022-10-22T08:32:52;2.90;;;0.90;;
15385;SDS011;7791;47.246;9.648;2022-10-22T08:35:17;3.13;;;0.70;;
15385;SDS011;7791;47.246;9.648;2022-10-22T08:37:45;7.17;;;0.87;;
15385;SDS011;7791;47.246;9.648;2022-10-22T08:40:11;3.50;;;0.70;;
15385;SDS011;7791;47.246;9.648;2022-10-22T08:43:02;2.87;;;0.80;;
15385;SDS011;7791;47.246;9.648;2022-10-22T08:46:00;1.73;;;0.60;;
15385;SDS011;7791;47.246;9.648;2022-10-22T08:48:42;1.30;;;0.63;;
15385;SDS011;7791;47.246;9.648;2022-10-22T08:51:10;5.30;;;1.50;;
15385;SDS011;7791;47.246;9.648;2022-10-22T08:53:41;1.93;;;1.43;;
15385;SDS011;7791;47.246;9.648;2022-10-22T08:56:13;3.27;;;1.20;;
15385;SDS011;7791;47.246;9.648;2022-10-22T08:58:42;2.20;;;0.60;;
15385;SDS011;7791;47.246;9.648;2022-10-22T09:01:16;4.80;;;1.67;;
15385;SDS011;7791;47.246;9.648;2022-10-22T09:03:46;2.70;;;1.40;;
15385;SDS011;7791;47.246;9.648;2022-10-22T09:06:17;2.73;;;1.30;;
15385;SDS011;7791;47.246;9.648;2022-10-22T09:08:46;3.83;;;2.00;;
15385;SDS011;7791;47.246;9.648;2022-10-22T09:11:15;4.13;;;1.30;;
15385;SDS011;7791;47.246;9.648;2022-10-22T09:13:46;3.43;;;1.40;;
15385;SDS011;7791;47.246;9.648;2022-10-22T09:16:17;1.93;;;0.80;;
15385;SDS011;7791;47.246;9.648;2022-10-22T09:18:46;4.43;;;0.70;;
15385;SDS011;7791;47.246;9.648;2022-10-22T09:21:25;2.77;;;0.57;;
15385;SDS011;7791;47.246;9.648;2022-10-22T09:23:59;1.33;;;0.70;;
15385;SDS011;7791;47.246;9.648;2022-10-22T09:26:29;1.07;;;0.67;;
15385;SDS011;7791;47.246;9.648;2022-10-22T09:28:58;3.77;;;0.70;;
15385;SDS011;7791;47.246;9.648;2022-10-22T09:31:25;2.53;;;0.50;;
15385;SDS011;7791;47.246;9.648;2022-10-22T09:33:53;4.30;;;0.77;;
15385;SDS011;7791;47.246;9.648;2022-10-22T09:36:20;1.23;;;0.70;;
15385;SDS011;7791;47.246;9.648;2022-10-22T09:38:47;4.83;;;0.90;;
15385;SDS011;7791;47.246;9.648;2022-10-22T09:41:15;4.67;;;0.70;;
15385;SDS011;7791;47.246;9.648;2022-10-22T09:43:45;1.85;;;0.50;;
15385;SDS011;7791;47.246;9.648;2022-10-22T09:46:13;2.88;;;0.70;;
15385;SDS011;7791;47.246;9.648;2022-10-22T09:48:41;0.70;;;0.60;;
15385;SDS011;7791;47.246;9.648;2022-10-22T09:51:12;6.68;;;0.75;;
15385;SDS011;7791;47.246;9.648;2022-10-22T09:53:42;1.93;;;0.57;;
15385;SDS011;7791;47.246;9.648;2022-10-22T09:56:13;4.00;;;0.63;;
15385;SDS011;7791;47.246;9.648;2022-10-22T09:58:48;1.70;;;0.50;;
15385;SDS011;7791;47.246;9.648;2022-10-22T10:01:15;1.47;;;0.70;;
15385;SDS011;7791;47.246;9.648;2022-10-22T10:03:43;2.97;;;0.90;;
15385;SDS011;7791;47.246;9.648;2022-10-22T10:06:11;1.90;;;0.90;;
15385;SDS011;7791;47.246;9.648;2022-10-22T10:08:42;1.77;;;0.60;;
15385;SDS011;7791;47.246;9.648;2022-10-22T10:11:09;1.40;;;0.67;;
15385;SDS011;7791;47.246;9.648;2022-10-22T10:13:44;6.00;;;0.75;;
15385;SDS011;7791;47.246;9.648;2022-10-22T10:16:23;1.85;;;0.60;;
15385;SDS011;7791;47.246;9.648;2022-10-22T10:18:58;6.70;;;1.13;;
15385;SDS011;7791;47.246;9.648;2022-10-22T10:21:38;8.48;;;0.80;;
15385;SDS011;7791;47.246;9.648;2022-10-22T10:24:12;5.75;;;0.55;;
15385;SDS011;7791;47.246;9.648;2022-10-22T10:26:49;1.67;;;0.70;;
15385;SDS011;7791;47.246;9.648;2022-10-22T10:29:26;2.38;;;0.73;;
15385;SDS011;7791;47.246;9.648;2022-10-22T10:32:11;0.98;;;0.50;;
15385;SDS011;7791;47.246;9.648;2022-10-22T10:34:50;1.30;;;0.57;;
15385;SDS011;7791;47.246;9.648;2022-10-22T10:37:23;1.08;;;0.60;;
15385;SDS011;7791;47.246;9.648;2022-10-22T10:39:59;1.48;;;0.70;;
15385;SDS011;7791;47.246;9.648;2022-10-22T10:42:37;0.52;;;0.50;;
15385;SDS011;7791;47.246;9.648;2022-10-22T10:45:11;1.33;;;0.60;;
15385;SDS011;7791;47.246;9.648;2022-10-22T10:47:54;0.80;;;0.65;;
15385;SDS011;7791;47.246;9.648;2022-10-22T10:50:38;1.00;;;0.60;;
15385;SDS011;7791;47.246;9.648;2022-10-22T10:53:16;2.15;;;0.60;;
15385;SDS011;7791;47.246;9.648;2022-10-22T10:55:52;2.20;;;0.70;;
15385;SDS011;7791;47.246;9.648;2022-10-22T10:58:24;4.43;;;0.70;;
15385;SDS011;7791;47.246;9.648;2022-10-22T11:01:08;2.08;;;0.43;;
15385;SDS011;7791;47.246;9.648;2022-10-22T11:06:45;8.77;;;1.17;;
15385;SDS011;7791;47.246;9.648;2022-10-22T11:09:20;2.78;;;0.50;;
15385;SDS011;7791;47.246;9.648;2022-10-22T11:11:50;2.63;;;0.50;;
15385;SDS011;7791;47.246;9.648;2022-10-22T11:14:20;5.90;;;1.13;;
15385;SDS011;7791;47.246;9.648;2022-10-22T11:16:52;0.50;;;0.50;;
15385;SDS011;7791;47.246;9.648;2022-10-22T11:19:35;0.73;;;0.35;;
15385;SDS011;7791;47.246;9.648;2022-10-22T11:22:05;5.85;;;0.70;;
15385;SDS011;7791;47.246;9.648;2022-10-22T11:24:37;2.35;;;0.52;;
15385;SDS011;7791;47.246;9.648;2022-10-22T11:27:09;4.68;;;0.65;;
15385;SDS011;7791;47.246;9.648;2022-10-22T11:29:43;0.80;;;0.50;;
15385;SDS011;7791;47.246;9.648;2022-10-22T11:32:16;0.98;;;0.45;;
15385;SDS011;7791;47.246;9.648;2022-10-22T11:37:46;2.67;;;0.60;;
15385;SDS011;7791;47.246;9.648;2022-10-22T11:40:13;2.72;;;0.60;;
15385;SDS011;7791;47.246;9.648;2022-10-22T11:42:43;1.23;;;0.43;;
15385;SDS011;7791;47.246;9.648;2022-10-22T11:45:28;0.40;;;0.40;;
15385;SDS011;7791;47.246;9.648;2022-10-22T11:48:05;2.00;;;0.50;;
15385;SDS011;7791;47.246;9.648;2022-10-22T11:50:45;1.88;;;0.50;;
15385;SDS011;7791;47.246;9.648;2022-10-22T11:53:16;2.25;;;0.50;;
15385;SDS011;7791;47.246;9.648;2022-10-22T11:55:45;3.17;;;0.50;;
15385;SDS011;7791;47.246;9.648;2022-10-22T11:58:26;1.85;;;0.40;;
15385;SDS011;7791;47.246;9.648;2022-10-22T12:00:56;0.93;;;0.47;;
15385;SDS011;7791;47.246;9.648;2022-10-22T12:03:38;1.85;;;0.60;;
15385;SDS011;7791;47.246;9.648;2022-10-22T12:06:15;2.55;;;0.50;;
15385;SDS011;7791;47.246;9.648;2022-10-22T12:08:44;1.33;;;0.70;;
15385;SDS011;7791;47.246;9.648;2022-10-22T12:11:16;3.03;;;0.55;;
15385;SDS011;7791;47.246;9.648;2022-10-22T12:13:55;1.50;;;1.00;;
15385;SDS011;7791;47.246;9.648;2022-10-22T12:16:38;2.15;;;0.57;;
15385;SDS011;7791;47.246;9.648;2022-10-22T12:19:12;1.75;;;0.40;;
15385;SDS011;7791;47.246;9.648;2022-10-22T12:21:40;2.55;;;0.60;;
15385;SDS011;7791;47.246;9.648;2022-10-22T12:24:08;3.45;;;0.50;;
15385;SDS011;7791;47.246;9.648;2022-10-22T12:26:37;2.35;;;0.50;;
15385;SDS011;7791;47.246;9.648;2022-10-22T12:29:08;0.55;;;0.40;;
15385;SDS011;7791;47.246;9.648;2022-10-22T12:31:35;2.42;;;0.47;;
15385;SDS011;7791;47.246;9.648;2022-10-22T12:34:03;3.20;;;1.73;;
15385;SDS011;7791;47.246;9.648;2022-10-22T12:36:32;1.35;;;0.90;;
15385;SDS011;7791;47.246;9.648;2022-10-22T12:38:58;4.53;;;2.72;;
15385;SDS011;7791;47.246;9.648;2022-10-22T12:41:31;3.83;;;2.22;;
15385;SDS011;7791;47.246;9.648;2022-10-22T12:43:58;4.40;;;1.13;;
15385;SDS011;7791;47.246;9.648;2022-10-22T12:46:24;59.42;;;42.70;;
15385;SDS011;7791;47.246;9.648;2022-10-22T12:48:52;2.28;;;1.25;;
15385;SDS011;7791;47.246;9.648;2022-10-22T12:51:18;1.80;;;0.43;;
15385;SDS011;7791;47.246;9.648;2022-10-22T12:53:47;2.08;;;0.50;;
15385;SDS011;7791;47.246;9.648;2022-10-22T12:56:16;0.65;;;0.50;;
15385;SDS011;7791;47.246;9.648;2022-10-22T12:58:47;1.75;;;0.40;;
15385;SDS011;7791;47.246;9.648;2022-10-22T13:01:16;1.15;;;0.40;;
15385;SDS011;7791;47.246;9.648;2022-10-22T13:03:43;3.90;;;0.50;;
15385;SDS011;7791;47.246;9.648;2022-10-22T13:06:11;3.67;;;0.60;;
15385;SDS011;7791;47.246;9.648;2022-10-22T13:08:39;4.47;;;0.30;;
15385;SDS011;7791;47.246;9.648;2022-10-22T13:11:07;0.95;;;0.43;;
15385;SDS011;7791;47.246;9.648;2022-10-22T13:13:40;1.77;;;0.50;;
15385;SDS011;7791;47.246;9.648;2022-10-22T13:16:18;4.60;;;0.73;;
15385;SDS011;7791;47.246;9.648;2022-10-22T13:18:45;0.65;;;0.38;;
15385;SDS011;7791;47.246;9.648;2022-10-22T13:21:26;2.55;;;0.30;;
15385;SDS011;7791;47.246;9.648;2022-10-22T13:23:54;3.30;;;0.50;;
15385;SDS011;7791;47.246;9.648;2022-10-22T13:26:23;1.60;;;0.30;;
15385;SDS011;7791;47.246;9.648;2022-10-22T13:28:55;5.17;;;0.80;;
15385;SDS011;7791;47.246;9.648;2022-10-22T13:31:24;3.90;;;0.60;;
15385;SDS011;7791;47.246;9.648;2022-10-22T13:33:51;5.37;;;0.47;;
15385;SDS011;7791;47.246;9.648;2022-10-22T13:36:19;4.90;;;0.40;;
15385;SDS011;7791;47.246;9.648;2022-10-22T13:38:45;8.73;;;0.70;;
15385;SDS011;7791;47.246;9.648;2022-10-22T13:41:18;8.50;;;0.80;;
15385;SDS011;7791;47.246;9.648;2022-10-22T13:43:47;4.20;;;0.50;;
15385;SDS011;7791;47.246;9.648;2022-10-22T13:46:14;3.30;;;0.53;;
15385;SDS011;7791;47.246;9.648;2022-10-22T13:48:40;6.57;;;0.50;;
15385;SDS011;7791;47.246;9.648;2022-10-22T13:51:09;8.10;;;0.57;;
15385;SDS011;7791;47.246;9.648;2022-10-22T13:53:39;4.17;;;0.70;;
15385;SDS011;7791;47.246;9.648;2022-10-22T13:56:04;2.67;;;0.50;;
15385;SDS011;7791;47.246;9.648;2022-10-22T13:58:30;7.90;;;0.50;;
15385;SDS011;7791;47.246;9.648;2022-10-22T14:00:58;8.70;;;0.53;;
15385;SDS011;7791;47.246;9.648;2022-10-22T14:03:25;2.40;;;0.40;;
15385;SDS011;7791;47.246;9.648;2022-10-22T14:06:03;0.63;;;0.40;;
15385;SDS011;7791;47.246;9.648;2022-10-22T14:08:35;7.93;;;1.13;;
15385;SDS011;7791;47.246;9.648;2022-10-22T14:11:01;11.33;;;3.30;;
15385;SDS011;7791;47.246;9.648;2022-10-22T14:13:27;4.83;;;0.60;;
15385;SDS011;7791;47.246;9.648;2022-10-22T14:15:52;5.70;;;0.50;;
15385;SDS011;7791;47.246;9.648;2022-10-22T14:18:21;4.47;;;0.57;;
15385;SDS011;7791;47.246;9.648;2022-10-22T14:20:48;6.50;;;0.90;;
15385;SDS011;7791;47.246;9.648;2022-10-22T14:23:17;4.33;;;0.63;;
15385;SDS011;7791;47.246;9.648;2022-10-22T14:25:45;2.87;;;0.60;;
15385;SDS011;7791;47.246;9.648;2022-10-22T14:28:11;4.33;;;1.00;;
15385;SDS011;7791;47.246;9.648;2022-10-22T14:30:37;8.07;;;0.90;;
15385;SDS011;7791;47.246;9.648;2022-10-22T14:33:05;11.57;;;1.17;;
15385;SDS011;7791;47.246;9.648;2022-10-22T14:35:47;5.50;;;0.80;;
15385;SDS011;7791;47.246;9.648;2022-10-22T14:38:17;3.90;;;0.70;;
15385;SDS011;7791;47.246;9.648;2022-10-22T14:40:43;3.37;;;0.50;;
15385;SDS011;7791;47.246;9.648;2022-10-22T14:43:09;4.87;;;0.50;;
15385;SDS011;7791;47.246;9.648;2022-10-22T14:45:36;3.57;;;0.60;;
15385;SDS011;7791;47.246;9.648;2022-10-22T14:48:02;3.00;;;0.60;;
15385;SDS011;7791;47.246;9.648;2022-10-22T14:50:29;3.37;;;0.50;;
15385;SDS011;7791;47.246;9.648;2022-10-22T14:52:56;4.63;;;0.80;;
15385;SDS011;7791;47.246;9.648;2022-10-22T14:55:22;8.50;;;1.10;;
15385;SDS011;7791;47.246;9.648;2022-10-22T14:57:48;6.40;;;0.50;;
15385;SDS011;7791;47.246;9.648;2022-10-22T15:00:14;5.90;;;1.07;;
15385;SDS011;7791;47.246;9.648;2022-10-22T15:02:41;6.70;;;1.00;;
15385;SDS011;7791;47.246;9.648;2022-10-22T15:05:07;8.77;;;1.00;;
15385;SDS011;7791;47.246;9.648;2022-10-22T15:07:33;8.43;;;1.00;;
15385;SDS011;7791;47.246;9.648;2022-10-22T15:10:00;6.20;;;0.60;;
15385;SDS011;7791;47.246;9.648;2022-10-22T15:12:26;10.77;;;0.80;;
15385;SDS011;7791;47.246;9.648;2022-10-22T15:14:52;4.13;;;0.70;;
15385;SDS011;7791;47.246;9.648;2022-10-22T15:17:18;10.57;;;0.90;;
15385;SDS011;7791;47.246;9.648;2022-10-22T15:19:43;11.03;;;1.30;;
15385;SDS011;7791;47.246;9.648;2022-10-22T15:22:09;8.50;;;0.70;;
15385;SDS011;7791;47.246;9.648;2022-10-22T15:24:35;7.47;;;1.03;;
15385;SDS011;7791;47.246;9.648;2022-10-22T15:27:02;5.73;;;1.00;;
15385;SDS011;7791;47.246;9.648;2022-10-22T15:29:28;9.07;;;0.90;;
15385;SDS011;7791;47.246;9.648;2022-10-22T15:31:55;6.60;;;1.40;;
15385;SDS011;7791;47.246;9.648;2022-10-22T15:34:22;2.80;;;0.90;;
15385;SDS011;7791;47.246;9.648;2022-10-22T15:36:49;5.63;;;1.00;;
15385;SDS011;7791;47.246;9.648;2022-10-22T15:39:17;4.30;;;0.60;;
15385;SDS011;7791;47.246;9.648;2022-10-22T15:41:43;3.93;;;1.20;;
15385;SDS011;7791;47.246;9.648;2022-10-22T15:44:13;8.57;;;1.00;;
15385;SDS011;7791;47.246;9.648;2022-10-22T15:46:40;4.47;;;0.93;;